sensor_id;sensor_type;location;lat;lon;timestamp;temperature;humidity
36586;DHT22;22591;48.314;11.562;2022-10-16T00:01:14;12.80;99.90
36586;DHT22;22591;48.314;11.562;2022-10-16T00:03:41;12.70;99.90
36586;DHT22;22591;48.314;11.562;2022-10-16T00:06:08;12.70;99.90
36586;DHT22;22591;48.314;11.562;2022-10-16T00:08:35;12.70;99.90
36586;DHT22;22591;48.314;11.562;2022-10-16T00:11:03;12.70;99.90
36586;DHT22;22591;48.314;11.562;2022-10-16T00:13:29;12.70;99.90
36586;DHT22;22591;48.314;11.562;2022-10-16T00:15:57;12.60;99.90
36586;DHT22;22591;48.314;11.562;2022-10-16T00:18:23;12.70;99.90
36586;DHT22;22591;48.314;11.562;2022-10-16T00:20:49;12.70;99.90
36586;DHT22;22591;48.314;11.562;2022-10-16T00:23:14;12.70;99.90
36586;DHT22;22591;48.314;11.562;2022-10-16T00:25:40;12.70;99.90
36586;DHT22;22591;48.314;11.562;2022-10-16T00:28:05;12.70;99.90
36586;DHT22;22591;48.314;11.562;2022-10-16T00:30:31;12.70;99.90
36586;DHT22;22591;48.314;11.562;2022-10-16T00:32:56;12.70;99.90
36586;DHT22;22591;48.314;11.562;2022-10-16T00:35:22;12.70;99.90
36586;DHT22;22591;48.314;11.562;2022-10-16T00:37:47;12.70;99.90
36586;DHT22;22591;48.314;11.562;2022-10-16T00:40:13;12.70;99.90
36586;DHT22;22591;48.314;11.562;2022-10-16T00:42:39;12.60;99.90
36586;DHT22;22591;48.314;11.562;2022-10-16T00:45:05;12.70;99.90
36586;DHT22;22591;48.314;11.562;2022-10-16T00:47:37;12.60;99.90
36586;DHT22;22591;48.314;11.562;2022-10-16T00:52:32;12.70;99.90
36586;DHT22;22591;48.314;11.562;2022-10-16T00:55:00;12.70;99.90
36586;DHT22;22591;48.314;11.562;2022-10-16T00:57:27;12.70;99.90
36586;DHT22;22591;48.314;11.562;2022-10-16T00:59:54;12.70;99.90
36586;DHT22;22591;48.314;11.562;2022-10-16T01:02:20;12.70;99.90
36586;DHT22;22591;48.314;11.562;2022-10-16T01:04:50;12.70;99.90
36586;DHT22;22591;48.314;11.562;2022-10-16T01:07:53;12.70;99.90
36586;DHT22;22591;48.314;11.562;2022-10-16T01:13:24;12.70;99.90
36586;DHT22;22591;48.314;11.562;2022-10-16T01:16:00;12.70;99.90
36586;DHT22;22591;48.314;11.562;2022-10-16T01:18:41;12.70;99.90
36586;DHT22;22591;48.314;11.562;2022-10-16T01:21:16;12.70;99.90
36586;DHT22;22591;48.314;11.562;2022-10-16T01:24:09;12.70;99.90
36586;DHT22;22591;48.314;11.562;2022-10-16T01:32:00;12.60;99.90
36586;DHT22;22591;48.314;11.562;2022-10-16T01:34:37;12.60;99.90
36586;DHT22;22591;48.314;11.562;2022-10-16T01:37:11;12.60;99.90
36586;DHT22;22591;48.314;11.562;2022-10-16T01:39:39;12.60;99.90
36586;DHT22;22591;48.314;11.562;2022-10-16T01:42:20;12.60;99.90
36586;DHT22;22591;48.314;11.562;2022-10-16T01:44:48;12.60;99.90
36586;DHT22;22591;48.314;11.562;2022-10-16T01:47:15;12.60;99.90
36586;DHT22;22591;48.314;11.562;2022-10-16T01:49:43;12.70;99.90
36586;DHT22;22591;48.314;11.562;2022-10-16T01:52:16;12.70;99.90
36586;DHT22;22591;48.314;11.562;2022-10-16T01:54:46;12.70;99.90
36586;DHT22;22591;48.314;11.562;2022-10-16T01:57:12;12.80;99.90
36586;DHT22;22591;48.314;11.562;2022-10-16T01:59:44;12.90;99.90
36586;DHT22;22591;48.314;11.562;2022-10-16T02:02:10;12.90;99.90
36586;DHT22;22591;48.314;11.562;2022-10-16T02:04:44;12.90;99.90
36586;DHT22;22591;48.314;11.562;2022-10-16T02:07:11;12.90;99.90
36586;DHT22;22591;48.314;11.562;2022-10-16T02:09:37;12.80;99.90
36586;DHT22;22591;48.314;11.562;2022-10-16T02:12:10;12.80;99.90
36586;DHT22;22591;48.314;11.562;2022-10-16T02:14:38;12.80;99.90
36586;DHT22;22591;48.314;11.562;2022-10-16T02:17:16;12.70;99.90
36586;DHT22;22591;48.314;11.562;2022-10-16T02:19:42;12.70;99.90
36586;DHT22;22591;48.314;11.562;2022-10-16T02:22:14;12.70;99.90
36586;DHT22;22591;48.314;11.562;2022-10-16T02:27:24;12.60;99.90
36586;DHT22;22591;48.314;11.562;2022-10-16T02:29:58;12.50;99.90
36586;DHT22;22591;48.314;11.562;2022-10-16T02:32:29;12.40;99.90
36586;DHT22;22591;48.314;11.562;2022-10-16T02:34:56;12.40;99.90
36586;DHT22;22591;48.314;11.562;2022-10-16T02:37:23;12.30;99.90
36586;DHT22;22591;48.314;11.562;2022-10-16T02:39:49;12.30;99.90
36586;DHT22;22591;48.314;11.562;2022-10-16T02:42:17;12.20;99.90
36586;DHT22;22591;48.314;11.562;2022-10-16T02:44:43;12.20;99.90
36586;DHT22;22591;48.314;11.562;2022-10-16T02:47:08;12.30;99.90
36586;DHT22;22591;48.314;11.562;2022-10-16T02:49:34;12.30;99.90
36586;DHT22;22591;48.314;11.562;2022-10-16T02:51:59;12.30;99.90
36586;DHT22;22591;48.314;11.562;2022-10-16T02:54:25;12.30;99.90
36586;DHT22;22591;48.314;11.562;2022-10-16T02:56:50;12.20;99.90
36586;DHT22;22591;48.314;11.562;2022-10-16T02:59:16;12.20;99.90
36586;DHT22;22591;48.314;11.562;2022-10-16T03:01:42;12.20;99.90
36586;DHT22;22591;48.314;11.562;2022-10-16T03:04:07;12.10;99.90
36586;DHT22;22591;48.314;11.562;2022-10-16T03:06:34;12.00;99.90
36586;DHT22;22591;48.314;11.562;2022-10-16T03:08:59;11.90;99.90
36586;DHT22;22591;48.314;11.562;2022-10-16T03:11:25;11.90;99.90
36586;DHT22;22591;48.314;11.562;2022-10-16T03:13:51;11.90;99.90
36586;DHT22;22591;48.314;11.562;2022-10-16T03:16:17;11.90;99.90
36586;DHT22;22591;48.314;11.562;2022-10-16T03:18:42;11.90;99.90
36586;DHT22;22591;48.314;11.562;2022-10-16T03:21:08;11.90;99.90
36586;DHT22;22591;48.314;11.562;2022-10-16T03:23:33;11.90;99.90
36586;DHT22;22591;48.314;11.562;2022-10-16T03:25:59;11.90;99.90
36586;DHT22;22591;48.314;11.562;2022-10-16T03:28:25;11.90;99.90
36586;DHT22;22591;48.314;11.562;2022-10-16T03:30:50;12.00;99.90
36586;DHT22;22591;48.314;11.562;2022-10-16T03:33:16;12.00;99.90
36586;DHT22;22591;48.314;11.562;2022-10-16T03:35:41;12.00;99.90
36586;DHT22;22591;48.314;11.562;2022-10-16T03:38:07;12.10;99.90
36586;DHT22;22591;48.314;11.562;2022-10-16T03:40:32;12.10;99.90
36586;DHT22;22591;48.314;11.562;2022-10-16T03:42:58;12.10;99.90
36586;DHT22;22591;48.314;11.562;2022-10-16T03:45:24;12.20;99.90
36586;DHT22;22591;48.314;11.562;2022-10-16T03:47:50;12.20;99.90
36586;DHT22;22591;48.314;11.562;2022-10-16T03:50:16;12.20;99.90
36586;DHT22;22591;48.314;11.562;2022-10-16T03:52:41;12.20;99.90
36586;DHT22;22591;48.314;11.562;2022-10-16T03:55:07;12.20;99.90
36586;DHT22;22591;48.314;11.562;2022-10-16T03:57:34;12.20;99.90
36586;DHT22;22591;48.314;11.562;2022-10-16T04:00:01;12.20;99.90
36586;DHT22;22591;48.314;11.562;2022-10-16T04:02:28;12.30;99.90
36586;DHT22;22591;48.314;11.562;2022-10-16T04:04:57;12.30;99.90
36586;DHT22;22591;48.314;11.562;2022-10-16T04:07:22;12.30;99.90
36586;DHT22;22591;48.314;11.562;2022-10-16T04:09:50;12.30;99.90
36586;DHT22;22591;48.314;11.562;2022-10-16T04:12:20;12.40;99.90
36586;DHT22;22591;48.314;11.562;2022-10-16T04:14:47;12.40;99.90
36586;DHT22;22591;48.314;11.562;2022-10-16T04:17:15;12.50;99.90
36586;DHT22;22591;48.314;11.562;2022-10-16T04:19:41;12.50;99.90
36586;DHT22;22591;48.314;11.562;2022-10-16T04:22:09;12.50;99.90
36586;DHT22;22591;48.314;11.562;2022-10-16T04:24:37;12.50;99.90
36586;DHT22;22591;48.314;11.562;2022-10-16T04:27:03;12.50;99.90
36586;DHT22;22591;48.314;11.562;2022-10-16T04:29:28;12.50;99.90
36586;DHT22;22591;48.314;11.562;2022-10-16T04:31:55;12.60;99.90
36586;DHT22;22591;48.314;11.562;2022-10-16T04:34:23;12.50;99.90
36586;DHT22;22591;48.314;11.562;2022-10-16T04:36:50;12.50;99.90
36586;DHT22;22591;48.314;11.562;2022-10-16T04:39:16;12.50;99.90
36586;DHT22;22591;48.314;11.562;2022-10-16T04:41:43;12.50;99.90
36586;DHT22;22591;48.314;11.562;2022-10-16T04:44:10;12.50;99.90
36586;DHT22;22591;48.314;11.562;2022-10-16T04:46:37;12.50;99.90
36586;DHT22;22591;48.314;11.562;2022-10-16T04:49:04;12.50;99.90
36586;DHT22;22591;48.314;11.562;2022-10-16T04:51:29;12.50;99.90
36586;DHT22;22591;48.314;11.562;2022-10-16T04:53:57;12.50;99.90
36586;DHT22;22591;48.314;11.562;2022-10-16T04:56:25;12.40;99.90
36586;DHT22;22591;48.314;11.562;2022-10-16T04:58:50;12.50;99.90
36586;DHT22;22591;48.314;11.562;2022-10-16T05:01:17;12.50;99.90
36586;DHT22;22591;48.314;11.562;2022-10-16T05:03:46;12.50;99.90
36586;DHT22;22591;48.314;11.562;2022-10-16T05:06:13;12.50;99.90
36586;DHT22;22591;48.314;11.562;2022-10-16T05:08:39;12.50;99.90
36586;DHT22;22591;48.314;11.562;2022-10-16T05:11:05;12.50;99.90
36586;DHT22;22591;48.314;11.562;2022-10-16T05:13:32;12.50;99.90
36586;DHT22;22591;48.314;11.562;2022-10-16T05:15:59;12.50;99.90
36586;DHT22;22591;48.314;11.562;2022-10-16T05:18:27;12.50;99.90
36586;DHT22;22591;48.314;11.562;2022-10-16T05:20:54;12.40;99.90
36586;DHT22;22591;48.314;11.562;2022-10-16T05:23:21;12.40;99.90
36586;DHT22;22591;48.314;11.562;2022-10-16T05:25:58;12.50;99.90
36586;DHT22;22591;48.314;11.562;2022-10-16T05:28:41;12.40;99.90
36586;DHT22;22591;48.314;11.562;2022-10-16T05:31:09;12.40;99.90
36586;DHT22;22591;48.314;11.562;2022-10-16T05:33:37;12.30;99.90
36586;DHT22;22591;48.314;11.562;2022-10-16T05:36:08;12.30;99.90
36586;DHT22;22591;48.314;11.562;2022-10-16T05:38:51;12.20;99.90
36586;DHT22;22591;48.314;11.562;2022-10-16T05:41:18;12.20;99.90
36586;DHT22;22591;48.314;11.562;2022-10-16T05:43:49;12.10;99.90
36586;DHT22;22591;48.314;11.562;2022-10-16T05:46:16;12.10;99.90
36586;DHT22;22591;48.314;11.562;2022-10-16T05:48:45;12.10;99.90
36586;DHT22;22591;48.314;11.562;2022-10-16T05:51:14;12.00;99.90
36586;DHT22;22591;48.314;11.562;2022-10-16T05:53:43;12.00;99.90
36586;DHT22;22591;48.314;11.562;2022-10-16T05:56:11;12.00;99.90
36586;DHT22;22591;48.314;11.562;2022-10-16T05:58:40;12.00;99.90
36586;DHT22;22591;48.314;11.562;2022-10-16T06:01:11;12.00;99.90
36586;DHT22;22591;48.314;11.562;2022-10-16T06:03:39;12.00;99.90
36586;DHT22;22591;48.314;11.562;2022-10-16T06:06:09;12.00;99.90
36586;DHT22;22591;48.314;11.562;2022-10-16T06:08:42;12.00;99.90
36586;DHT22;22591;48.314;11.562;2022-10-16T06:11:20;12.10;99.90
36586;DHT22;22591;48.314;11.562;2022-10-16T06:13:51;12.10;99.90
36586;DHT22;22591;48.314;11.562;2022-10-16T06:16:19;12.10;99.90
36586;DHT22;22591;48.314;11.562;2022-10-16T06:18:46;12.00;99.90
36586;DHT22;22591;48.314;11.562;2022-10-16T06:21:17;12.00;99.90
36586;DHT22;22591;48.314;11.562;2022-10-16T06:23:44;12.00;99.90
36586;DHT22;22591;48.314;11.562;2022-10-16T06:26:18;12.00;99.90
36586;DHT22;22591;48.314;11.562;2022-10-16T06:28:46;12.00;99.90
36586;DHT22;22591;48.314;11.562;2022-10-16T06:31:14;12.00;99.90
36586;DHT22;22591;48.314;11.562;2022-10-16T06:33:42;12.00;99.90
36586;DHT22;22591;48.314;11.562;2022-10-16T06:36:14;12.00;99.90
36586;DHT22;22591;48.314;11.562;2022-10-16T06:38:41;12.10;99.90
36586;DHT22;22591;48.314;11.562;2022-10-16T06:41:11;12.10;99.90
36586;DHT22;22591;48.314;11.562;2022-10-16T06:43:42;12.20;99.90
36586;DHT22;22591;48.314;11.562;2022-10-16T06:46:13;12.30;99.90
36586;DHT22;22591;48.314;11.562;2022-10-16T06:48:41;12.40;99.90
36586;DHT22;22591;48.314;11.562;2022-10-16T06:51:13;12.50;99.90
36586;DHT22;22591;48.314;11.562;2022-10-16T06:53:42;12.50;99.90
36586;DHT22;22591;48.314;11.562;2022-10-16T06:58:43;12.50;99.90
36586;DHT22;22591;48.314;11.562;2022-10-16T07:01:11;12.50;99.90
36586;DHT22;22591;48.314;11.562;2022-10-16T07:03:39;12.50;99.90
36586;DHT22;22591;48.314;11.562;2022-10-16T07:06:07;12.50;99.90
36586;DHT22;22591;48.314;11.562;2022-10-16T07:08:34;12.60;99.90
36586;DHT22;22591;48.314;11.562;2022-10-16T07:11:02;12.70;99.90
36586;DHT22;22591;48.314;11.562;2022-10-16T07:13:29;12.80;99.90
36586;DHT22;22591;48.314;11.562;2022-10-16T07:15:56;13.00;99.90
36586;DHT22;22591;48.314;11.562;2022-10-16T07:18:24;13.00;99.90
36586;DHT22;22591;48.314;11.562;2022-10-16T07:20:53;13.10;99.90
36586;DHT22;22591;48.314;11.562;2022-10-16T07:23:20;13.20;99.90
36586;DHT22;22591;48.314;11.562;2022-10-16T07:25:53;13.40;99.90
36586;DHT22;22591;48.314;11.562;2022-10-16T07:28:20;13.50;99.90
36586;DHT22;22591;48.314;11.562;2022-10-16T07:30:48;13.50;99.90
36586;DHT22;22591;48.314;11.562;2022-10-16T07:33:16;13.60;99.90
36586;DHT22;22591;48.314;11.562;2022-10-16T07:35:53;13.60;99.90
36586;DHT22;22591;48.314;11.562;2022-10-16T07:38:23;13.60;99.90
36586;DHT22;22591;48.314;11.562;2022-10-16T07:41:02;13.70;99.90
36586;DHT22;22591;48.314;11.562;2022-10-16T07:43:33;13.70;99.90
36586;DHT22;22591;48.314;11.562;2022-10-16T07:46:00;13.80;99.90
36586;DHT22;22591;48.314;11.562;2022-10-16T07:48:31;13.90;99.90
36586;DHT22;22591;48.314;11.562;2022-10-16T07:51:02;14.10;99.90
36586;DHT22;22591;48.314;11.562;2022-10-16T07:53:45;14.20;99.90
36586;DHT22;22591;48.314;11.562;2022-10-16T07:56:13;14.30;99.90
36586;DHT22;22591;48.314;11.562;2022-10-16T07:58:40;14.50;99.90
36586;DHT22;22591;48.314;11.562;2022-10-16T08:01:12;14.60;99.90
36586;DHT22;22591;48.314;11.562;2022-10-16T08:03:44;14.70;99.90
36586;DHT22;22591;48.314;11.562;2022-10-16T08:06:11;14.90;99.90
36586;DHT22;22591;48.314;11.562;2022-10-16T08:08:39;15.10;99.90
36586;DHT22;22591;48.314;11.562;2022-10-16T08:11:04;15.20;99.90
36586;DHT22;22591;48.314;11.562;2022-10-16T08:13:31;15.30;99.90
36586;DHT22;22591;48.314;11.562;2022-10-16T08:15:56;15.50;99.90
36586;DHT22;22591;48.314;11.562;2022-10-16T08:18:24;15.70;99.90
36586;DHT22;22591;48.314;11.562;2022-10-16T08:21:00;15.80;99.90
36586;DHT22;22591;48.314;11.562;2022-10-16T08:23:27;15.90;99.90
36586;DHT22;22591;48.314;11.562;2022-10-16T08:25:56;16.10;99.90
36586;DHT22;22591;48.314;11.562;2022-10-16T08:28:23;16.20;99.90
36586;DHT22;22591;48.314;11.562;2022-10-16T08:30:48;16.30;99.90
36586;DHT22;22591;48.314;11.562;2022-10-16T08:33:16;16.50;99.90
36586;DHT22;22591;48.314;11.562;2022-10-16T08:35:50;16.60;99.90
36586;DHT22;22591;48.314;11.562;2022-10-16T08:38:18;16.80;99.90
36586;DHT22;22591;48.314;11.562;2022-10-16T08:40:46;16.90;99.90
36586;DHT22;22591;48.314;11.562;2022-10-16T08:49:22;17.50;99.90
36586;DHT22;22591;48.314;11.562;2022-10-16T08:51:51;17.60;99.90
36586;DHT22;22591;48.314;11.562;2022-10-16T08:54:30;17.70;99.90
36586;DHT22;22591;48.314;11.562;2022-10-16T09:00:11;17.80;99.90
36586;DHT22;22591;48.314;11.562;2022-10-16T09:09:36;18.10;99.90
36586;DHT22;22591;48.314;11.562;2022-10-16T09:12:24;18.30;99.90
36586;DHT22;22591;48.314;11.562;2022-10-16T09:15:35;18.40;99.90
36586;DHT22;22591;48.314;11.562;2022-10-16T09:18:29;18.50;99.90
36586;DHT22;22591;48.314;11.562;2022-10-16T09:21:18;18.60;99.90
36586;DHT22;22591;48.314;11.562;2022-10-16T09:23:48;18.60;99.90
36586;DHT22;22591;48.314;11.562;2022-10-16T09:26:20;18.80;99.90
36586;DHT22;22591;48.314;11.562;2022-10-16T09:28:52;18.90;99.90
36586;DHT22;22591;48.314;11.562;2022-10-16T09:31:29;18.90;99.90
36586;DHT22;22591;48.314;11.562;2022-10-16T09:33:58;19.10;99.90
36586;DHT22;22591;48.314;11.562;2022-10-16T09:36:28;19.20;99.90
36586;DHT22;22591;48.314;11.562;2022-10-16T09:39:09;19.20;99.90
36586;DHT22;22591;48.314;11.562;2022-10-16T09:41:51;19.30;99.90
36586;DHT22;22591;48.314;11.562;2022-10-16T09:44:29;19.30;99.90
36586;DHT22;22591;48.314;11.562;2022-10-16T09:47:05;19.40;99.90
36586;DHT22;22591;48.314;11.562;2022-10-16T09:49:32;19.50;99.90
36586;DHT22;22591;48.314;11.562;2022-10-16T09:52:11;19.50;99.90
36586;DHT22;22591;48.314;11.562;2022-10-16T09:54:55;19.70;99.90
36586;DHT22;22591;48.314;11.562;2022-10-16T09:57:55;19.80;99.90
36586;DHT22;22591;48.314;11.562;2022-10-16T10:00:23;19.90;99.90
36586;DHT22;22591;48.314;11.562;2022-10-16T10:02:54;19.90;99.90
36586;DHT22;22591;48.314;11.562;2022-10-16T10:05:32;20.00;99.90
36586;DHT22;22591;48.314;11.562;2022-10-16T10:08:01;20.00;99.90
36586;DHT22;22591;48.314;11.562;2022-10-16T10:10:37;20.20;99.90
36586;DHT22;22591;48.314;11.562;2022-10-16T10:13:21;20.30;99.90
36586;DHT22;22591;48.314;11.562;2022-10-16T10:15:49;20.50;99.90
36586;DHT22;22591;48.314;11.562;2022-10-16T10:18:22;20.60;99.90
36586;DHT22;22591;48.314;11.562;2022-10-16T10:21:05;20.70;99.90
36586;DHT22;22591;48.314;11.562;2022-10-16T10:23:34;20.90;99.90
36586;DHT22;22591;48.314;11.562;2022-10-16T10:26:20;21.00;99.90
36586;DHT22;22591;48.314;11.562;2022-10-16T10:29:12;21.20;99.90
36586;DHT22;22591;48.314;11.562;2022-10-16T10:44:50;22.10;99.90
36586;DHT22;22591;48.314;11.562;2022-10-16T10:53:36;22.30;99.90
36586;DHT22;22591;48.314;11.562;2022-10-16T10:59:52;22.50;99.90
36586;DHT22;22591;48.314;11.562;2022-10-16T11:02:41;22.50;99.90
36586;DHT22;22591;48.314;11.562;2022-10-16T11:08:06;22.50;99.10
36586;DHT22;22591;48.314;11.562;2022-10-16T11:10:57;22.50;99.30
36586;DHT22;22591;48.314;11.562;2022-10-16T11:13:54;22.60;98.20
36586;DHT22;22591;48.314;11.562;2022-10-16T11:16:34;22.60;97.50
36586;DHT22;22591;48.314;11.562;2022-10-16T11:21:54;22.80;98.30
36586;DHT22;22591;48.314;11.562;2022-10-16T11:27:04;22.70;96.30
36586;DHT22;22591;48.314;11.562;2022-10-16T11:29:35;22.70;95.10
36586;DHT22;22591;48.314;11.562;2022-10-16T11:32:17;22.90;93.80
36586;DHT22;22591;48.314;11.562;2022-10-16T11:35:00;22.90;93.20
36586;DHT22;22591;48.314;11.562;2022-10-16T11:37:33;23.00;93.60
36586;DHT22;22591;48.314;11.562;2022-10-16T11:40:28;23.00;92.80
36586;DHT22;22591;48.314;11.562;2022-10-16T11:43:32;23.00;92.30
36586;DHT22;22591;48.314;11.562;2022-10-16T11:46:13;23.10;92.30
36586;DHT22;22591;48.314;11.562;2022-10-16T11:49:04;23.20;91.80
36586;DHT22;22591;48.314;11.562;2022-10-16T11:51:43;23.50;91.00
36586;DHT22;22591;48.314;11.562;2022-10-16T11:57:35;23.70;89.60
36586;DHT22;22591;48.314;11.562;2022-10-16T12:00:23;23.70;90.30
36586;DHT22;22591;48.314;11.562;2022-10-16T12:03:24;23.70;90.40
36586;DHT22;22591;48.314;11.562;2022-10-16T12:09:25;23.30;90.60
36586;DHT22;22591;48.314;11.562;2022-10-16T12:11:54;23.20;89.50
36586;DHT22;22591;48.314;11.562;2022-10-16T12:14:34;23.30;90.30
36586;DHT22;22591;48.314;11.562;2022-10-16T12:20:30;23.60;86.70
36586;DHT22;22591;48.314;11.562;2022-10-16T12:23:05;23.90;83.50
36586;DHT22;22591;48.314;11.562;2022-10-16T12:25:36;24.20;83.80
36586;DHT22;22591;48.314;11.562;2022-10-16T12:28:31;24.40;83.50
36586;DHT22;22591;48.314;11.562;2022-10-16T12:31:22;24.70;84.00
36586;DHT22;22591;48.314;11.562;2022-10-16T12:37:28;25.00;80.10
36586;DHT22;22591;48.314;11.562;2022-10-16T12:40:00;25.00;80.40
36586;DHT22;22591;48.314;11.562;2022-10-16T12:42:40;24.80;81.20
36586;DHT22;22591;48.314;11.562;2022-10-16T12:45:28;24.50;82.00
36586;DHT22;22591;48.314;11.562;2022-10-16T12:47:56;24.20;82.30
36586;DHT22;22591;48.314;11.562;2022-10-16T12:53:23;23.70;84.20
36586;DHT22;22591;48.314;11.562;2022-10-16T13:23:13;23.80;82.70
36586;DHT22;22591;48.314;11.562;2022-10-16T13:25:56;23.80;84.30
36586;DHT22;22591;48.314;11.562;2022-10-16T13:28:42;23.80;85.10
36586;DHT22;22591;48.314;11.562;2022-10-16T13:31:27;23.80;86.30
36586;DHT22;22591;48.314;11.562;2022-10-16T13:33:57;23.80;84.30
36586;DHT22;22591;48.314;11.562;2022-10-16T13:36:57;23.90;84.00
36586;DHT22;22591;48.314;11.562;2022-10-16T13:39:39;24.10;84.10
36586;DHT22;22591;48.314;11.562;2022-10-16T13:42:10;23.90;82.60
36586;DHT22;22591;48.314;11.562;2022-10-16T13:44:58;23.90;82.30
36586;DHT22;22591;48.314;11.562;2022-10-16T13:47:29;23.90;81.00
36586;DHT22;22591;48.314;11.562;2022-10-16T13:50:14;23.90;80.80
36586;DHT22;22591;48.314;11.562;2022-10-16T13:52:42;24.00;81.60
36586;DHT22;22591;48.314;11.562;2022-10-16T13:55:16;24.00;82.40
36586;DHT22;22591;48.314;11.562;2022-10-16T13:57:43;24.00;81.90
36586;DHT22;22591;48.314;11.562;2022-10-16T14:00:26;23.90;81.60
36586;DHT22;22591;48.314;11.562;2022-10-16T14:03:04;23.90;82.20
36586;DHT22;22591;48.314;11.562;2022-10-16T14:05:33;23.80;79.60
36586;DHT22;22591;48.314;11.562;2022-10-16T14:08:02;23.80;79.30
36586;DHT22;22591;48.314;11.562;2022-10-16T14:10:31;23.70;79.30
36586;DHT22;22591;48.314;11.562;2022-10-16T14:13:07;23.70;80.40
36586;DHT22;22591;48.314;11.562;2022-10-16T14:15:35;23.80;80.90
36586;DHT22;22591;48.314;11.562;2022-10-16T14:18:04;23.70;80.10
36586;DHT22;22591;48.314;11.562;2022-10-16T14:20:33;23.70;80.70
36586;DHT22;22591;48.314;11.562;2022-10-16T14:23:33;23.70;80.40
36586;DHT22;22591;48.314;11.562;2022-10-16T14:26:28;23.70;80.10
36586;DHT22;22591;48.314;11.562;2022-10-16T14:29:15;23.70;81.10
36586;DHT22;22591;48.314;11.562;2022-10-16T14:32:01;23.70;83.00
36586;DHT22;22591;48.314;11.562;2022-10-16T14:34:41;23.60;83.60
36586;DHT22;22591;48.314;11.562;2022-10-16T14:37:25;23.50;86.70
36586;DHT22;22591;48.314;11.562;2022-10-16T14:39:55;23.40;88.50
36586;DHT22;22591;48.314;11.562;2022-10-16T14:42:26;23.20;90.10
36586;DHT22;22591;48.314;11.562;2022-10-16T14:44:55;23.10;91.10
36586;DHT22;22591;48.314;11.562;2022-10-16T14:47:27;22.90;92.90
36586;DHT22;22591;48.314;11.562;2022-10-16T14:49:55;22.70;94.10
36586;DHT22;22591;48.314;11.562;2022-10-16T14:52:25;22.50;94.20
36586;DHT22;22591;48.314;11.562;2022-10-16T14:54:52;22.50;95.10
36586;DHT22;22591;48.314;11.562;2022-10-16T14:57:31;22.40;95.90
36586;DHT22;22591;48.314;11.562;2022-10-16T14:59:58;22.30;96.70
36586;DHT22;22591;48.314;11.562;2022-10-16T15:02:34;22.10;96.80
36586;DHT22;22591;48.314;11.562;2022-10-16T15:07:45;21.90;97.00
36586;DHT22;22591;48.314;11.562;2022-10-16T15:10:14;21.80;96.70
36586;DHT22;22591;48.314;11.562;2022-10-16T15:12:43;21.70;96.60
36586;DHT22;22591;48.314;11.562;2022-10-16T15:15:33;21.70;97.00
36586;DHT22;22591;48.314;11.562;2022-10-16T15:18:00;21.50;97.40
36586;DHT22;22591;48.314;11.562;2022-10-16T15:20:34;21.40;98.10
36586;DHT22;22591;48.314;11.562;2022-10-16T15:23:29;21.40;98.70
36586;DHT22;22591;48.314;11.562;2022-10-16T15:25:56;21.30;99.00
36586;DHT22;22591;48.314;11.562;2022-10-16T15:28:23;21.30;99.20
36586;DHT22;22591;48.314;11.562;2022-10-16T15:30:52;21.20;99.20
36586;DHT22;22591;48.314;11.562;2022-10-16T15:33:29;21.10;99.40
36586;DHT22;22591;48.314;11.562;2022-10-16T15:36:03;21.00;99.40
36586;DHT22;22591;48.314;11.562;2022-10-16T15:38:30;20.90;99.50
36586;DHT22;22591;48.314;11.562;2022-10-16T15:40:55;20.90;99.80
36586;DHT22;22591;48.314;11.562;2022-10-16T15:43:24;20.80;99.90
36586;DHT22;22591;48.314;11.562;2022-10-16T15:46:04;20.70;99.90
36586;DHT22;22591;48.314;11.562;2022-10-16T15:48:32;20.60;99.90
36586;DHT22;22591;48.314;11.562;2022-10-16T15:51:00;20.50;99.90
36586;DHT22;22591;48.314;11.562;2022-10-16T15:53:32;20.40;99.90
36586;DHT22;22591;48.314;11.562;2022-10-16T15:56:07;20.20;99.90
36586;DHT22;22591;48.314;11.562;2022-10-16T15:58:35;20.10;99.80
36586;DHT22;22591;48.314;11.562;2022-10-16T16:01:02;20.10;99.70
36586;DHT22;22591;48.314;11.562;2022-10-16T16:03:34;20.00;99.60
36586;DHT22;22591;48.314;11.562;2022-10-16T16:06:11;20.00;99.50
36586;DHT22;22591;48.314;11.562;2022-10-16T16:08:39;19.80;99.80
36586;DHT22;22591;48.314;11.562;2022-10-16T16:11:09;19.60;99.90
36586;DHT22;22591;48.314;11.562;2022-10-16T16:13:35;19.50;99.90
36586;DHT22;22591;48.314;11.562;2022-10-16T16:16:11;19.40;99.90
36586;DHT22;22591;48.314;11.562;2022-10-16T16:18:40;19.40;99.90
36586;DHT22;22591;48.314;11.562;2022-10-16T16:21:10;19.30;99.90
36586;DHT22;22591;48.314;11.562;2022-10-16T16:23:36;19.10;99.90
36586;DHT22;22591;48.314;11.562;2022-10-16T16:26:07;19.00;99.90
36586;DHT22;22591;48.314;11.562;2022-10-16T16:28:34;18.90;99.90
36586;DHT22;22591;48.314;11.562;2022-10-16T16:31:01;18.70;99.90
36586;DHT22;22591;48.314;11.562;2022-10-16T16:33:29;18.70;99.90
36586;DHT22;22591;48.314;11.562;2022-10-16T16:35:58;18.50;99.90
36586;DHT22;22591;48.314;11.562;2022-10-16T16:38:26;18.40;99.90
36586;DHT22;22591;48.314;11.562;2022-10-16T16:40:52;18.30;99.90
36586;DHT22;22591;48.314;11.562;2022-10-16T16:43:19;18.20;99.90
36586;DHT22;22591;48.314;11.562;2022-10-16T16:45:46;18.10;99.90
36586;DHT22;22591;48.314;11.562;2022-10-16T16:48:13;18.00;99.90
36586;DHT22;22591;48.314;11.562;2022-10-16T16:50:40;17.90;99.90
36586;DHT22;22591;48.314;11.562;2022-10-16T16:53:05;17.80;99.90
36586;DHT22;22591;48.314;11.562;2022-10-16T16:55:32;17.70;99.90
36586;DHT22;22591;48.314;11.562;2022-10-16T16:57:59;17.70;99.90
36586;DHT22;22591;48.314;11.562;2022-10-16T17:00:30;17.60;99.90
36586;DHT22;22591;48.314;11.562;2022-10-16T17:02:57;17.50;99.90
36586;DHT22;22591;48.314;11.562;2022-10-16T17:05:24;17.50;99.90
36586;DHT22;22591;48.314;11.562;2022-10-16T17:07:52;17.40;99.90
36586;DHT22;22591;48.314;11.562;2022-10-16T17:10:20;17.40;99.90
36586;DHT22;22591;48.314;11.562;2022-10-16T17:12:46;17.30;99.90
36586;DHT22;22591;48.314;11.562;2022-10-16T17:15:12;17.30;99.90
36586;DHT22;22591;48.314;11.562;2022-10-16T17:17:40;17.20;99.90
36586;DHT22;22591;48.314;11.562;2022-10-16T17:20:06;17.40;99.90
36586;DHT22;22591;48.314;11.562;2022-10-16T17:22:35;17.40;99.90
36586;DHT22;22591;48.314;11.562;2022-10-16T17:25:03;17.30;99.90
36586;DHT22;22591;48.314;11.562;2022-10-16T17:27:30;17.40;99.90
36586;DHT22;22591;48.314;11.562;2022-10-16T17:29:56;17.40;99.90
36586;DHT22;22591;48.314;11.562;2022-10-16T17:32:25;17.50;99.90